Pagina principale
METAR-TAF:

METAR-TAF

Aeroporti :

Aeroporto di Brescia-Ghedi

Brescia Ghedi, Italia

latitudine: 45-25N, longitudine: 010-17E, altezza: 102 m

Osservazione

Il bollettino è stato emesso 32 minuti fa, alle 18:55 UTC
Vento 1 kt da sud-est
Temperature 2°C
Umidità 80%
Pressione 1016 hPa
Visibilità 10 km o più
Nuvoloso ad un'altezza di 8000 ft

METAR: LIPL 191855Z 14001KT 9999 BKN080 02/M01 Q1016 RMK BKN VIS MIN 9999 WIND THR31 06001KT WIND THR13 14002KT BLU

Ora: 20:27 (19:27 UTC)

Previsione

Il bollettino è stato emesso 2 ore e 27 minuti fa, alle 17:00 UTC
Previsione valida dal 19 alle 18 UTC al 20 alle 03 UTC
Vento 4 kt da direzioni variabili
Visibilità 10 km o più
Nubi sparse ad un'altezza di 6000 ft
Temporaneamente
dal 19 alle 22 UTC al 20 alle 03 UTC
Visibilità: 5000 m
foschia

TAF: LIPL 191700Z 1918/2003 VRB04KT 9999 SCT060 TEMPO 1922/2003 5000 BR

Osservazioni e previsioni meteorologiche di più di 4000 aeroporti (messaggi METAR e TAF).

Le stazioni disponibili sono rappresentate dai dischi gialli e rossi sulla carta.

Puntare il mouse per vedere il nome della stazione.

Clicca sopra per visualizzare le osservazioni e previsioni meteorologiche.

Per cambiare la mappa : fare clic sui pulsanti verdi con una croce nera per ingrandire, il pulsante verde con un trattino per diminuire, o sulla freccia verde per le mappe adiacenti.


METAR-TAF: